Aviation Digital Data Service (ADDS)

Output produced by METARs form (0250 UTC 21 October 2017)
found at http://www.aviationweather.gov/adds/metars/
 
METAR text: RJFU 210200Z 04018KT 9999 FEW030 BKN060 BKN100 20/14 Q1010
Conditions at: RJFU (NAGASAKI(CIV/JMS, JP) observed 0200 UTC 21 October 2017
Temperature: 20.0°C (68°F)
Dewpoint: 14.0°C (57°F) [RH = 68%]
Pressure (altimeter): 29.82 inches Hg (1010.0 mb)
Winds: from the NE (40 degrees) at 21 MPH (18 knots; 9.4 m/s)
Visibility: 6 or more miles (10+ km)
Ceiling: 6000 feet AGL
Clouds: few clouds at 3000 feet AGL
broken clouds at 6000 feet AGL
broken clouds at 10000 feet AGL
Weather: no significant weather observed at this time

METAR text: RJFU 210100Z 04019KT 9999 FEW030 BKN060 BKN110 21/14 Q1009
Conditions at: RJFU (NAGASAKI(CIV/JMS, JP) observed 0100 UTC 21 October 2017
Temperature: 21.0°C (70°F)
Dewpoint: 14.0°C (57°F) [RH = 64%]
Pressure (altimeter): 29.79 inches Hg (1009.0 mb)
Winds: from the NE (40 degrees) at 22 MPH (19 knots; 9.9 m/s)
Visibility: 6 or more miles (10+ km)
Ceiling: 6000 feet AGL
Clouds: few clouds at 3000 feet AGL
broken clouds at 6000 feet AGL
broken clouds at 11000 feet AGL
Weather: no significant weather observed at this time

METAR text: RJFU 210000Z 03017KT 9999 FEW025 BKN060 BKN110 21/14 Q1010
Conditions at: RJFU (NAGASAKI(CIV/JMS, JP) observed 0000 UTC 21 October 2017
Temperature: 21.0°C (70°F)
Dewpoint: 14.0°C (57°F) [RH = 64%]
Pressure (altimeter): 29.82 inches Hg (1010.0 mb)
Winds: from the NNE (30 degrees) at 20 MPH (17 knots; 8.8 m/s)
Visibility: 6 or more miles (10+ km)
Ceiling: 6000 feet AGL
Clouds: few clouds at 2500 feet AGL
broken clouds at 6000 feet AGL
broken clouds at 11000 feet AGL
Weather: no significant weather observed at this time

METAR text: RJFU 202300Z 03022KT 9999 FEW025 SCT050 BKN070 21/14 Q1009
Conditions at: RJFU (NAGASAKI(CIV/JMS, JP) observed 2300 UTC 20 October 2017
Temperature: 21.0°C (70°F)
Dewpoint: 14.0°C (57°F) [RH = 64%]
Pressure (altimeter): 29.79 inches Hg (1009.0 mb)
Winds: from the NNE (30 degrees) at 25 MPH (22 knots; 11.4 m/s)
Visibility: 6 or more miles (10+ km)
Ceiling: 7000 feet AGL
Clouds: few clouds at 2500 feet AGL
scattered clouds at 5000 feet AGL
broken clouds at 7000 feet AGL
Weather: no significant weather observed at this time

METAR text: RJFU 202200Z 02017KT 9999 FEW025 BKN050 BKN070 20/15 Q1009
Conditions at: RJFU (NAGASAKI(CIV/JMS, JP) observed 2200 UTC 20 October 2017
Temperature: 20.0°C (68°F)
Dewpoint: 15.0°C (59°F) [RH = 73%]
Pressure (altimeter): 29.79 inches Hg (1009.0 mb)
Winds: from the NNE (20 degrees) at 20 MPH (17 knots; 8.8 m/s)
Visibility: 6 or more miles (10+ km)
Ceiling: 5000 feet AGL
Clouds: few clouds at 2500 feet AGL
broken clouds at 5000 feet AGL
broken clouds at 7000 feet AGL
Weather: no significant weather observed at this time

METAR text: RJFU 202110Z 03019KT 9999 FEW025 BKN050 BKN070 20/15 Q1009 RMK 1CU025 5SC050 7AC070 A2982
Conditions at: RJFU (NAGASAKI(CIV/JMS, JP) observed 2110 UTC 20 October 2017
Temperature: 20.0°C (68°F)
Dewpoint: 15.0°C (59°F) [RH = 73%]
Pressure (altimeter): 29.79 inches Hg (1009.0 mb)
Winds: from the NNE (30 degrees) at 22 MPH (19 knots; 9.9 m/s)
Visibility: 6 or more miles (10+ km)
Ceiling: 5000 feet AGL
Clouds: few clouds at 2500 feet AGL
broken clouds at 5000 feet AGL
broken clouds at 7000 feet AGL
Weather: no significant weather observed at this time

METAR text: RJFU 201200Z 04011KT 9999 FEW025 BKN070 21/15 Q1012
Conditions at: RJFU (NAGASAKI(CIV/JMS, JP) observed 1200 UTC 20 October 2017
Temperature: 21.0°C (70°F)
Dewpoint: 15.0°C (59°F) [RH = 69%]
Pressure (altimeter): 29.88 inches Hg (1012.0 mb)
Winds: from the NE (40 degrees) at 13 MPH (11 knots; 5.7 m/s)
Visibility: 6 or more miles (10+ km)
Ceiling: 7000 feet AGL
Clouds: few clouds at 2500 feet AGL
broken clouds at 7000 feet AGL
Weather: no significant weather observed at this time

METAR text: RJFU 201100Z 05010KT 9999 FEW025 BKN070 21/14 Q1012
Conditions at: RJFU (NAGASAKI(CIV/JMS, JP) observed 1100 UTC 20 October 2017
Temperature: 21.0°C (70°F)
Dewpoint: 14.0°C (57°F) [RH = 64%]
Pressure (altimeter): 29.88 inches Hg (1012.0 mb)
Winds: from the NE (50 degrees) at 12 MPH (10 knots; 5.2 m/s)
Visibility: 6 or more miles (10+ km)
Ceiling: 7000 feet AGL
Clouds: few clouds at 2500 feet AGL
broken clouds at 7000 feet AGL
Weather: no significant weather observed at this time

METAR text: RJFU 201000Z 03014KT 9999 FEW025 BKN070 21/14 Q1011
Conditions at: RJFU (NAGASAKI(CIV/JMS, JP) observed 1000 UTC 20 October 2017
Temperature: 21.0°C (70°F)
Dewpoint: 14.0°C (57°F) [RH = 64%]
Pressure (altimeter): 29.85 inches Hg (1011.0 mb)
Winds: from the NNE (30 degrees) at 16 MPH (14 knots; 7.3 m/s)
Visibility: 6 or more miles (10+ km)
Ceiling: 7000 feet AGL
Clouds: few clouds at 2500 feet AGL
broken clouds at 7000 feet AGL
Weather: no significant weather observed at this time

METAR text: RJFU 200900Z 03010KT 9999 FEW025 SCT070 21/13 Q1011
Conditions at: RJFU (NAGASAKI(CIV/JMS, JP) observed 0900 UTC 20 October 2017
Temperature: 21.0°C (70°F)
Dewpoint: 13.0°C (55°F) [RH = 60%]
Pressure (altimeter): 29.85 inches Hg (1011.0 mb)
Winds: from the NNE (30 degrees) at 12 MPH (10 knots; 5.2 m/s)
Visibility: 6 or more miles (10+ km)
Ceiling: at least 12,000 feet AGL
Clouds: few clouds at 2500 feet AGL
scattered clouds at 7000 feet AGL
Weather: no significant weather observed at this time

METAR text: RJFU 200800Z 04013KT 9999 FEW025 SCT070 22/14 Q1011
Conditions at: RJFU (NAGASAKI(CIV/JMS, JP) observed 0800 UTC 20 October 2017
Temperature: 22.0°C (72°F)
Dewpoint: 14.0°C (57°F) [RH = 60%]
Pressure (altimeter): 29.85 inches Hg (1011.0 mb)
Winds: from the NE (40 degrees) at 15 MPH (13 knots; 6.8 m/s)
Visibility: 6 or more miles (10+ km)
Ceiling: at least 12,000 feet AGL
Clouds: few clouds at 2500 feet AGL
scattered clouds at 7000 feet AGL
Weather: no significant weather observed at this time

METAR text: RJFU 200700Z 04017KT 9999 FEW025 BKN070 24/14 Q1011
Conditions at: RJFU (NAGASAKI(CIV/JMS, JP) observed 0700 UTC 20 October 2017
Temperature: 24.0°C (75°F)
Dewpoint: 14.0°C (57°F) [RH = 54%]
Pressure (altimeter): 29.85 inches Hg (1011.0 mb)
Winds: from the NE (40 degrees) at 20 MPH (17 knots; 8.8 m/s)
Visibility: 6 or more miles (10+ km)
Ceiling: 7000 feet AGL
Clouds: few clouds at 2500 feet AGL
broken clouds at 7000 feet AGL
Weather: no significant weather observed at this time

METAR text: RJFU 200600Z 03016KT 9999 FEW025 BKN060 24/14 Q1011
Conditions at: RJFU (NAGASAKI(CIV/JMS, JP) observed 0600 UTC 20 October 2017
Temperature: 24.0°C (75°F)
Dewpoint: 14.0°C (57°F) [RH = 54%]
Pressure (altimeter): 29.85 inches Hg (1011.0 mb)
Winds: from the NNE (30 degrees) at 18 MPH (16 knots; 8.3 m/s)
Visibility: 6 or more miles (10+ km)
Ceiling: 6000 feet AGL
Clouds: few clouds at 2500 feet AGL
broken clouds at 6000 feet AGL
Weather: no significant weather observed at this time

METAR text: RJFU 200500Z 03014KT 9999 FEW020 BKN060 24/13 Q1011
Conditions at: RJFU (NAGASAKI(CIV/JMS, JP) observed 0500 UTC 20 October 2017
Temperature: 24.0°C (75°F)
Dewpoint: 13.0°C (55°F) [RH = 50%]
Pressure (altimeter): 29.85 inches Hg (1011.0 mb)
Winds: from the NNE (30 degrees) at 16 MPH (14 knots; 7.3 m/s)
Visibility: 6 or more miles (10+ km)
Ceiling: 6000 feet AGL
Clouds: few clouds at 2000 feet AGL
broken clouds at 6000 feet AGL
Weather: no significant weather observed at this time

METAR text: RJFU 200411Z 08011KT 040V100 9999 FEW020 BKN060 25/14 Q1011 RMK 1CU020 7SC060 A2987
Conditions at: RJFU (NAGASAKI(CIV/JMS, JP) observed 0411 UTC 20 October 2017
Temperature: 25.0°C (77°F)
Dewpoint: 14.0°C (57°F) [RH = 50%]
Pressure (altimeter): 29.85 inches Hg (1011.0 mb)
Winds: from the E (80 degrees) at 13 MPH (11 knots; 5.7 m/s)
Visibility: 6 or more miles (10+ km)
Ceiling: 6000 feet AGL
Clouds: few clouds at 2000 feet AGL
broken clouds at 6000 feet AGL
Weather: no significant weather observed at this time

METAR text: RJFU 200400Z 02012KT 9999 FEW020 BKN060 24/14 Q1011
Conditions at: RJFU (NAGASAKI(CIV/JMS, JP) observed 0400 UTC 20 October 2017
Temperature: 24.0°C (75°F)
Dewpoint: 14.0°C (57°F) [RH = 54%]
Pressure (altimeter): 29.85 inches Hg (1011.0 mb)
Winds: from the NNE (20 degrees) at 14 MPH (12 knots; 6.2 m/s)
Visibility: 6 or more miles (10+ km)
Ceiling: 6000 feet AGL
Clouds: few clouds at 2000 feet AGL
broken clouds at 6000 feet AGL
Weather: no significant weather observed at this time

METAR text: RJFU 200300Z 03013KT 9999 FEW020 BKN060 23/15 Q1012
Conditions at: RJFU (NAGASAKI(CIV/JMS, JP) observed 0300 UTC 20 October 2017
Temperature: 23.0°C (73°F)
Dewpoint: 15.0°C (59°F) [RH = 61%]
Pressure (altimeter): 29.88 inches Hg (1012.0 mb)
Winds: from the NNE (30 degrees) at 15 MPH (13 knots; 6.8 m/s)
Visibility: 6 or more miles (10+ km)
Ceiling: 6000 feet AGL
Clouds: few clouds at 2000 feet AGL
broken clouds at 6000 feet AGL
Weather: no significant weather observed at this time

METAR text: RJFU 200200Z 02011KT 9999 FEW020 BKN060 23/14 Q1013
Conditions at: RJFU (NAGASAKI(CIV/JMS, JP) observed 0200 UTC 20 October 2017
Temperature: 23.0°C (73°F)
Dewpoint: 14.0°C (57°F) [RH = 57%]
Pressure (altimeter): 29.91 inches Hg (1013.0 mb)
Winds: from the NNE (20 degrees) at 13 MPH (11 knots; 5.7 m/s)
Visibility: 6 or more miles (10+ km)
Ceiling: 6000 feet AGL
Clouds: few clouds at 2000 feet AGL
broken clouds at 6000 feet AGL
Weather: no significant weather observed at this time

METAR text: RJFU 200146Z 35008KT 320V020 9999 FEW020 BKN060 23/15 Q1013 RMK 1CU020 7SC060 A2992
Conditions at: RJFU (NAGASAKI(CIV/JMS, JP) observed 0146 UTC 20 October 2017
Temperature: 23.0°C (73°F)
Dewpoint: 15.0°C (59°F) [RH = 61%]
Pressure (altimeter): 29.91 inches Hg (1013.0 mb)
Winds: from the N (350 degrees) at 9 MPH (8 knots; 4.2 m/s)
Visibility: 6 or more miles (10+ km)
Ceiling: 6000 feet AGL
Clouds: few clouds at 2000 feet AGL
broken clouds at 6000 feet AGL
Weather: no significant weather observed at this time

METAR text: RJFU 200126Z 05010KT 030V090 9999 FEW020 BKN060 23/15 Q1013 RMK 1CU020 7SC060 A2992
Conditions at: RJFU (NAGASAKI(CIV/JMS, JP) observed 0126 UTC 20 October 2017
Temperature: 23.0°C (73°F)
Dewpoint: 15.0°C (59°F) [RH = 61%]
Pressure (altimeter): 29.91 inches Hg (1013.0 mb)
Winds: from the NE (50 degrees) at 12 MPH (10 knots; 5.2 m/s)
Visibility: 6 or more miles (10+ km)
Ceiling: 6000 feet AGL
Clouds: few clouds at 2000 feet AGL
broken clouds at 6000 feet AGL
Weather: no significant weather observed at this time

METAR text: RJFU 200100Z 34008KT 9999 FEW020 SCT050 BKN060 22/15 Q1013
Conditions at: RJFU (NAGASAKI(CIV/JMS, JP) observed 0100 UTC 20 October 2017
Temperature: 22.0°C (72°F)
Dewpoint: 15.0°C (59°F) [RH = 65%]
Pressure (altimeter): 29.91 inches Hg (1013.0 mb)
Winds: from the NNW (340 degrees) at 9 MPH (8 knots; 4.2 m/s)
Visibility: 6 or more miles (10+ km)
Ceiling: 6000 feet AGL
Clouds: few clouds at 2000 feet AGL
scattered clouds at 5000 feet AGL
broken clouds at 6000 feet AGL
Weather: no significant weather observed at this time

METAR text: RJFU 200000Z 02007KT 330V070 9999 FEW015 BKN050 BKN060 21/15 Q1013
Conditions at: RJFU (NAGASAKI(CIV/JMS, JP) observed 0000 UTC 20 October 2017
Temperature: 21.0°C (70°F)
Dewpoint: 15.0°C (59°F) [RH = 69%]
Pressure (altimeter): 29.91 inches Hg (1013.0 mb)
Winds: from the NNE (20 degrees) at 8 MPH (7 knots; 3.6 m/s)
Visibility: 6 or more miles (10+ km)
Ceiling: 5000 feet AGL
Clouds: few clouds at 1500 feet AGL
broken clouds at 5000 feet AGL
broken clouds at 6000 feet AGL
Weather: no significant weather observed at this time

METAR text: RJFU 192300Z 03007KT 340V060 9999 FEW005 BKN050 20/15 Q1013
Conditions at: RJFU (NAGASAKI(CIV/JMS, JP) observed 2300 UTC 19 October 2017
Temperature: 20.0°C (68°F)
Dewpoint: 15.0°C (59°F) [RH = 73%]
Pressure (altimeter): 29.91 inches Hg (1013.0 mb)
Winds: from the NNE (30 degrees) at 8 MPH (7 knots; 3.6 m/s)
Visibility: 6 or more miles (10+ km)
Ceiling: 5000 feet AGL
Clouds: few clouds at 500 feet AGL
broken clouds at 5000 feet AGL
Weather: no significant weather observed at this time

METAR text: RJFU 192200Z 16004KT 130V210 9999 FEW010 BKN050 19/17 Q1013
Conditions at: RJFU (NAGASAKI(CIV/JMS, JP) observed 2200 UTC 19 October 2017
Temperature: 19.0°C (66°F)
Dewpoint: 17.0°C (63°F) [RH = 88%]
Pressure (altimeter): 29.91 inches Hg (1013.0 mb)
Winds: from the SSE (160 degrees) at 5 MPH (4 knots; 2.1 m/s)
Visibility: 6 or more miles (10+ km)
Ceiling: 5000 feet AGL
Clouds: few clouds at 1000 feet AGL
broken clouds at 5000 feet AGL
Weather: no significant weather observed at this time

METAR text: RJFU 192110Z 14004KT 110V180 9999 FEW008 BKN045 18/17 Q1012 RMK 1ST008 7SC045 A2991
Conditions at: RJFU (NAGASAKI(CIV/JMS, JP) observed 2110 UTC 19 October 2017
Temperature: 18.0°C (64°F)
Dewpoint: 17.0°C (63°F) [RH = 94%]
Pressure (altimeter): 29.88 inches Hg (1012.0 mb)
Winds: from the SE (140 degrees) at 5 MPH (4 knots; 2.1 m/s)
Visibility: 6 or more miles (10+ km)
Ceiling: 4500 feet AGL
Clouds: few clouds at 800 feet AGL
broken clouds at 4500 feet AGL
Weather: no significant weather observed at this time